Ludington, MI

6:51 PM EST on November 18, 2019 (GMT -0500)
Mason County

Weather History for KLDM - September, 2019

Change the Weather History Date:

Thursday, September 12, 2019

  Actual Average Record
Temperature  
Mean Temperature 62 °F -  
Max Temperature 66 °F 72 °F 91 °F (1952)
Min Temperature 59 °F 52 °F 33 °F (1955)
Degree Days  
Heating Degree Days 2    
Growing Degree Days 12 (Base 50)    
Moisture  
Dew Point 59 °F    
Average Humidity 88    
Maximum Humidity 96    
Minimum Humidity 77    
Precipitation  
Precipitation 0.00 in - - ()
Sea Level Pressure  
Sea Level Pressure 30.14 in    
Wind  
Wind Speed 10 mph (East)    
Max Wind Speed 16 mph    
Max Gust Speed 24 mph    
Visibility 9 miles    
Events      
Averages and records for this station are not official NWS values.
T = Trace of Precipitation, MM = Missing Value Source: NWS Daily Summary

Daily Weather History Graph

Daily Weather History Graph

Search for Another Location

Airport or City:

Astronomy

Sep. 12, 2019 Rise Set
Actual Time 7:21 AM EDT 8:01 PM EDT
Civil Twilight 6:52 AM EDT 8:30 PM EDT
Nautical Twilight 6:17 AM EDT 9:05 PM EDT
Astronomical Twilight 5:41 AM EDT 9:41 PM EDT
Moon 7:50 PM EDT (9/12) 5:34 AM EDT (9/12)
Length of Visible Light 13h 38m
Length of Day
12h 40m
Waxing Gibbous, 98% of the Moon is Illuminated
Sep 12
Waxing Gibbous
Sep 14
Full
Sep 21
Last Quarter
Sep 28
New
Oct 5
First Quarter

Hourly Weather History & Observations

Time (EDT) Temp. Dew Point Humidity Pressure Visibility Wind Dir Wind Speed Gust Speed Precip Events Conditions
12:15 AM 65.5 °F 64.4 °F 96% 30.08 in 10.0 mi NE 5.8 mph - N/A   Overcast
12:35 AM 65.5 °F 64.4 °F 96% 30.08 in 10.0 mi ENE 9.2 mph - N/A   Overcast
12:36 AM 65.5 °F 64.4 °F 96% 30.08 in 10.0 mi ENE 10.4 mph - N/A   Overcast
12:59 AM 65.1 °F 63.7 °F 95% 30.07 in 7.0 mi ENE 8.1 mph - N/A   Overcast
1:17 AM 64.0 °F 62.8 °F 96% 30.07 in 5.0 mi ENE 8.1 mph - N/A   Overcast
1:35 AM 63.5 °F 62.2 °F 96% 30.07 in 7.0 mi ENE 11.5 mph - N/A   Overcast
1:55 AM 63.1 °F 61.9 °F 96% 30.07 in 4.0 mi East 12.7 mph 18.4 mph N/A   Overcast
2:15 AM 62.8 °F 61.7 °F 96% 30.08 in 5.0 mi East 11.5 mph 18.4 mph N/A   Overcast
2:38 AM 62.2 °F 61.0 °F 96% 30.08 in 2.5 mi East 11.5 mph - N/A   Overcast
2:55 AM 61.9 °F 60.8 °F 96% 30.09 in 2.5 mi ENE 9.2 mph - N/A   Overcast
3:15 AM 61.3 °F 60.1 °F 96% 30.09 in 3.0 mi ENE 9.2 mph 16.1 mph N/A   Overcast
3:16 AM 61.3 °F 60.1 °F 96% 30.10 in 3.0 mi ENE 10.4 mph 16.1 mph N/A   Overcast
3:35 AM 61.3 °F 60.1 °F 96% 30.10 in 5.0 mi East 9.2 mph - N/A   Overcast
3:59 AM 61.2 °F 59.9 °F 96% 30.10 in 5.0 mi ENE 10.4 mph - N/A   Overcast
4:17 AM 61.0 °F 59.9 °F 96% 30.11 in 7.0 mi ENE 8.1 mph - N/A   Overcast
4:35 AM 60.8 °F 59.5 °F 96% 30.11 in 3.0 mi East 8.1 mph - N/A   Overcast
4:36 AM 60.8 °F 59.5 °F 96% 30.11 in 3.0 mi ENE 6.9 mph - N/A   Overcast
4:55 AM 60.8 °F 59.4 °F 95% 30.12 in 2.5 mi ENE 9.2 mph - N/A   Overcast
4:56 AM 60.8 °F 59.4 °F 95% 30.12 in 2.5 mi ENE 8.1 mph - N/A   Overcast
5:15 AM 60.4 °F 59.2 °F 96% 30.13 in 5.0 mi ENE 5.8 mph - N/A   Overcast
5:37 AM 60.3 °F 59.0 °F 96% 30.14 in 7.0 mi East 9.2 mph - N/A   Overcast
5:56 AM 60.3 °F 59.0 °F 96% 30.15 in 4.0 mi East 8.1 mph - N/A   Overcast
6:15 AM 60.1 °F 59.0 °F 96% 30.15 in 4.0 mi ENE 6.9 mph - N/A   Overcast
6:35 AM 59.9 °F 58.6 °F 96% 30.16 in 7.0 mi ENE 8.1 mph - N/A   Overcast
7:17 AM 59.9 °F 58.6 °F 96% 30.18 in 10.0 mi East 8.1 mph - N/A   Overcast
7:35 AM 59.9 °F 58.5 °F 95% 30.18 in 10.0 mi East 10.4 mph - N/A   Overcast
7:55 AM 59.4 °F 58.1 °F 96% 30.18 in 10.0 mi East 9.2 mph - N/A   Overcast
8:15 AM 59.2 °F 58.1 °F 96% 30.17 in 10.0 mi East 8.1 mph - N/A   Overcast
8:38 AM 59.0 °F 57.7 °F 96% 30.16 in 10.0 mi ENE 8.1 mph - N/A   Overcast
8:56 AM 59.0 °F 57.6 °F 95% 30.17 in 10.0 mi East 10.4 mph - N/A   Overcast
9:15 AM 59.4 °F 57.6 °F 94% 30.18 in 10.0 mi East 10.4 mph - N/A   Overcast
9:35 AM 59.5 °F 57.0 °F 91% 30.19 in 10.0 mi East 9.2 mph - N/A   Overcast
9:59 AM 59.9 °F 57.0 °F 90% 30.18 in 10.0 mi East 11.5 mph - N/A   Overcast
10:17 AM 59.9 °F 56.8 °F 90% 30.19 in 10.0 mi East 12.7 mph - N/A   Overcast
10:35 AM 60.1 °F 56.3 °F 87% 30.19 in 10.0 mi ESE 9.2 mph 19.6 mph N/A   Overcast
10:36 AM 60.1 °F 56.5 °F 88% 30.19 in 10.0 mi ESE 9.2 mph 19.6 mph N/A   Overcast
10:55 AM 61.0 °F 56.5 °F 85% 30.19 in 10.0 mi East 11.5 mph 20.7 mph N/A   Overcast
11:15 AM 61.3 °F 56.7 °F 85% 30.20 in 10.0 mi ESE 8.1 mph 18.4 mph N/A   Overcast
11:38 AM 62.1 °F 57.0 °F 84% 30.20 in 10.0 mi ESE 11.5 mph - N/A   Overcast
11:55 AM 62.6 °F 56.7 °F 81% 30.20 in 10.0 mi ESE 9.2 mph - N/A   Overcast
12:15 PM 62.1 °F 57.0 °F 84% 30.20 in 10.0 mi East 11.5 mph - N/A   Overcast
12:16 PM 62.1 °F 57.0 °F 84% 30.19 in 10.0 mi East 11.5 mph - N/A   Overcast
12:35 PM 62.1 °F 56.8 °F 83% 30.20 in 10.0 mi ESE 11.5 mph 17.3 mph N/A   Overcast
12:59 PM 64.0 °F 58.3 °F 82% 30.20 in 10.0 mi East 12.7 mph 18.4 mph N/A   Overcast
1:17 PM 63.0 °F 57.0 °F 81% 30.20 in 10.0 mi East 12.7 mph - N/A   Overcast
1:35 PM 64.0 °F 57.6 °F 79% 30.20 in 10.0 mi East 12.7 mph 16.1 mph N/A   Overcast
1:36 PM 64.0 °F 57.7 °F 80% 30.20 in 10.0 mi East 13.8 mph - N/A   Overcast
1:55 PM 65.1 °F 57.9 °F 77% 30.20 in 10.0 mi ESE 12.7 mph 17.3 mph N/A   Overcast
2:15 PM 65.1 °F 58.3 °F 78% 30.20 in 10.0 mi ESE 12.7 mph 18.4 mph N/A   Overcast
2:38 PM 65.1 °F 57.7 °F 77% 30.18 in 10.0 mi ESE 11.5 mph 19.6 mph N/A   Overcast
2:56 PM 65.3 °F 57.9 °F 77% 30.18 in 10.0 mi ESE 12.7 mph 19.6 mph N/A   Overcast
3:15 PM 65.7 °F 58.5 °F 78% 30.18 in 10.0 mi East 10.4 mph - N/A   Overcast
3:16 PM 65.7 °F 58.5 °F 78% 30.18 in 10.0 mi ESE 11.5 mph - N/A   Overcast
3:35 PM 66.0 °F 58.8 °F 78% 30.18 in 10.0 mi ESE 9.2 mph - N/A   Overcast
3:36 PM 66.0 °F 58.8 °F 78% 30.18 in 10.0 mi ESE 9.2 mph - N/A   Overcast
3:58 PM 65.5 °F 58.8 °F 79% 30.17 in 10.0 mi ESE 9.2 mph - N/A   Overcast
4:17 PM 65.8 °F 59.0 °F 79% 30.16 in 10.0 mi ESE 12.7 mph - N/A   Overcast
4:35 PM 65.7 °F 59.2 °F 80% 30.16 in 10.0 mi East 12.7 mph 17.3 mph N/A   Overcast
4:55 PM 65.7 °F 59.2 °F 80% 30.16 in 10.0 mi East 16.1 mph 20.7 mph N/A   Overcast
4:56 PM 65.5 °F 59.0 °F 80% 30.16 in 10.0 mi East 16.1 mph 20.7 mph N/A   Overcast
5:15 PM 65.3 °F 59.0 °F 80% 30.15 in 10.0 mi ESE 11.5 mph - N/A   Overcast
5:20 PM 65.3 °F 59.0 °F 80% 30.15 in 10.0 mi ESE 12.7 mph 16.1 mph N/A   Overcast
5:38 PM 65.3 °F 59.2 °F 81% 30.15 in 10.0 mi ESE 15.0 mph 18.4 mph N/A   Overcast
5:56 PM 65.3 °F 59.2 °F 81% 30.15 in 10.0 mi ESE 13.8 mph - N/A   Overcast
6:15 PM 64.8 °F 59.4 °F 83% 30.14 in 10.0 mi ESE 11.5 mph - N/A   Overcast
6:16 PM 64.8 °F 59.4 °F 83% 30.14 in 10.0 mi ESE 10.4 mph - N/A   Overcast
6:35 PM 64.4 °F 59.5 °F 84% 30.13 in 10.0 mi ESE 11.5 mph 20.7 mph N/A   Overcast
6:59 PM 63.9 °F 59.4 °F 85% 30.12 in 10.0 mi ESE 12.7 mph - N/A   Overcast
7:17 PM 63.5 °F 59.0 °F 85% 30.14 in 10.0 mi ESE 11.5 mph 19.6 mph N/A   Overcast
7:35 PM 63.5 °F 59.0 °F 85% 30.14 in 10.0 mi ESE 13.8 mph - N/A   Overcast
7:36 PM 63.5 °F 59.0 °F 85% 30.14 in 10.0 mi ESE 12.7 mph - N/A   Overcast
7:55 PM 63.5 °F 58.8 °F 85% 30.15 in 10.0 mi ESE 15.0 mph 19.6 mph N/A   Overcast
7:56 PM 63.5 °F 58.8 °F 85% 30.15 in 10.0 mi ESE 13.8 mph 19.6 mph N/A   Overcast
8:15 PM 63.0 °F 58.6 °F 86% 30.15 in 10.0 mi ESE 15.0 mph - N/A   Overcast
8:38 PM 63.1 °F 58.5 °F 85% 30.13 in 10.0 mi ESE 12.7 mph 23.0 mph N/A   Overcast
8:56 PM 63.0 °F 59.0 °F 87% 30.14 in 10.0 mi ESE 12.7 mph 18.4 mph N/A   Overcast
9:15 PM 63.0 °F 58.6 °F 86% 30.12 in 10.0 mi ESE 12.7 mph 21.9 mph N/A   Overcast
9:16 PM 63.0 °F 58.8 °F 86% 30.13 in 10.0 mi ESE 15.0 mph 21.9 mph N/A   Overcast
9:35 PM 62.8 °F 59.0 °F 87% 30.13 in 10.0 mi ESE 13.8 mph 19.6 mph N/A   Overcast
9:59 PM 62.6 °F 58.6 °F 87% 30.12 in 10.0 mi ESE 16.1 mph 24.2 mph N/A   Overcast
10:17 PM 62.6 °F 58.5 °F 86% 30.12 in 10.0 mi ESE 11.5 mph 24.2 mph N/A   Overcast
10:35 PM 61.9 °F 58.1 °F 87% 30.11 in 10.0 mi ESE 13.8 mph 20.7 mph N/A   Overcast
10:55 PM 61.7 °F 58.1 °F 88% 30.11 in 10.0 mi ESE 15.0 mph 19.6 mph N/A   Overcast
10:56 PM 61.7 °F 58.1 °F 88% 30.11 in 10.0 mi ESE 15.0 mph 19.6 mph N/A   Overcast
11:15 PM 61.7 °F 58.1 °F 88% 30.09 in 10.0 mi ESE 16.1 mph 23.0 mph N/A   Overcast
11:37 PM 61.7 °F 58.3 °F 89% 30.08 in 10.0 mi ESE 13.8 mph 21.9 mph N/A   Overcast
11:56 PM 61.9 °F 58.5 °F 89% 30.08 in 10.0 mi ESE 15.0 mph 23.0 mph N/A   Overcast